Time;durP1;ratioP1;P1;durP2;ratioP2;P2;SDS_P1;SDS_P2;PMS_P1;PMS_P2;Temp;Humidity;BMP_temperature;BMP_pressure;BME280_temperature;BME280_humidity;BME280_pressure;Samples;Min_cycle;Max_cycle;Signal;HPM_P1;HPM_P2
2023/10/26 00:01:35;;;;;;;6.63;2.50;;;;;;;;;;6118396;23;20029;-77
2023/10/26 00:04:05;;;;;;;6.35;2.00;;;;;;;;;;6094086;23;20022;-78
2023/10/26 00:06:35;;;;;;;8.15;3.10;;;;;;;;;;6094403;23;20029;-77
2023/10/26 00:09:05;;;;;;;11.13;4.47;;;;;;;;;;6094579;23;20018;-77
2023/10/26 00:11:36;;;;;;;12.35;3.80;;;;;;;;;;6116963;23;20026;-78
2023/10/26 00:14:07;;;;;;;9.13;3.00;;;;;;;;;;6103607;23;20029;-78
2023/10/26 00:16:37;;;;;;;32.20;9.13;;;;;;;;;;6229052;23;20019;-78
2023/10/26 00:19:08;;;;;;;18.55;6.18;;;;;;;;;;6255417;23;20008;-78
2023/10/26 00:21:38;;;;;;;16.67;5.53;;;;;;;;;;6245167;23;20020;-78
2023/10/26 00:24:09;;;;;;;12.68;3.20;;;;;;;;;;6244836;23;20344;-78
2023/10/26 00:26:40;;;;;;;12.60;2.88;;;;;;;;;;6245108;22;20020;-78
2023/10/26 00:29:11;;;;;;;6.35;2.50;;;;;;;;;;6254916;23;20019;-78
2023/10/26 00:31:41;;;;;;;11.60;3.45;;;;;;;;;;6217268;23;20324;-78
2023/10/26 00:34:12;;;;;;;16.95;4.13;;;;;;;;;;6245098;23;20012;-77
2023/10/26 00:36:45;;;;;;;14.73;4.85;;;;;;;;;;6219084;23;20012;-78
2023/10/26 00:39:15;;;;;;;6.05;3.05;;;;;;;;;;6255308;23;20008;-78
2023/10/26 00:41:45;;;;;;;9.23;2.30;;;;;;;;;;6219742;23;20043;-78
2023/10/26 00:44:16;;;;;;;8.55;2.30;;;;;;;;;;6252722;23;20316;-78
2023/10/26 00:46:48;;;;;;;3.83;2.08;;;;;;;;;;6217847;23;20046;-78
2023/10/26 00:49:20;;;;;;;6.10;2.00;;;;;;;;;;6258325;23;20012;-78
2023/10/26 00:56:41;;;;;;;4.63;2.33;;;;;;;;;;6254065;23;20515;-78
2023/10/26 00:59:12;;;;;;;4.38;2.22;;;;;;;;;;6220012;23;20012;-80
2023/10/26 01:09:14;;;;;;;6.95;2.20;;;;;;;;;;6247626;22;20024;-79
2023/10/26 01:12:16;;;;;;;10.90;2.38;;;;;;;;;;6258722;23;20008;-78
2023/10/26 01:14:46;;;;;;;9.23;2.05;;;;;;;;;;6257601;23;20016;-79
2023/10/26 01:17:16;;;;;;;8.43;2.53;;;;;;;;;;6246031;23;20020;-79
2023/10/26 01:19:48;;;;;;;9.82;2.03;;;;;;;;;;6245576;23;20043;-79
2023/10/26 01:22:18;;;;;;;8.23;1.75;;;;;;;;;;6217940;23;20016;-79
2023/10/26 01:24:48;;;;;;;5.82;1.67;;;;;;;;;;6243700;23;20020;-79
2023/10/26 01:27:18;;;;;;;5.30;2.10;;;;;;;;;;6246031;23;20019;-78
2023/10/26 01:29:48;;;;;;;10.20;2.20;;;;;;;;;;6273210;22;20020;-78
2023/10/26 01:32:21;;;;;;;7.50;1.88;;;;;;;;;;6276320;22;20024;-77
2023/10/26 01:34:52;;;;;;;4.65;1.92;;;;;;;;;;6277630;22;20008;-78
2023/10/26 01:45:36;;;;;;;5.93;1.80;;;;;;;;;;6286479;22;20020;-78
2023/10/26 01:48:06;;;;;;;7.18;2.30;;;;;;;;;;6248783;22;20012;-79
2023/10/26 01:50:37;;;;;;;5.30;2.05;;;;;;;;;;6276864;22;20020;-79
2023/10/26 02:21:31;;;;;;;3.92;1.70;;;;;;;;;;6251278;22;20028;-78
2023/10/26 02:24:02;;;;;;;9.32;1.83;;;;;;;;;;6287663;22;20008;-78
2023/10/26 02:26:32;;;;;;;3.45;1.52;;;;;;;;;;6275838;22;20012;-78
2023/10/26 02:29:01;;;;;;;6.03;1.58;;;;;;;;;;6276329;22;20027;-79
2023/10/26 02:31:32;;;;;;;5.72;1.67;;;;;;;;;;6276449;22;20337;-79
2023/10/26 02:34:01;;;;;;;6.68;2.10;;;;;;;;;;6277306;22;20012;-78
2023/10/26 02:36:32;;;;;;;6.78;2.03;;;;;;;;;;6278201;22;20015;-78
2023/10/26 02:39:03;;;;;;;4.28;1.75;;;;;;;;;;6250296;22;20316;-78
2023/10/26 02:41:34;;;;;;;9.73;2.08;;;;;;;;;;6277960;22;20012;-78
2023/10/26 02:44:04;;;;;;;9.32;1.95;;;;;;;;;;6275372;22;20450;-79
2023/10/26 02:46:34;;;;;;;6.47;1.88;;;;;;;;;;6278310;22;20016;-78
2023/10/26 02:49:03;;;;;;;7.22;1.73;;;;;;;;;;6276543;22;20019;-78
2023/10/26 02:51:34;;;;;;;9.30;2.15;;;;;;;;;;6278948;22;20022;-79
2023/10/26 02:54:04;;;;;;;4.95;2.10;;;;;;;;;;6252317;22;20314;-78
2023/10/26 02:56:34;;;;;;;8.50;2.60;;;;;;;;;;6278151;22;20020;-78
2023/10/26 02:59:07;;;;;;;5.22;2.10;;;;;;;;;;6278275;22;20022;-79
2023/10/26 03:01:37;;;;;;;6.72;1.90;;;;;;;;;;6277896;22;20020;-79
2023/10/26 03:04:07;;;;;;;8.82;2.47;;;;;;;;;;6278783;22;20021;-78
2023/10/26 03:06:41;;;;;;;9.80;2.45;;;;;;;;;;6249600;22;20023;-79
2023/10/26 03:09:13;;;;;;;6.78;2.20;;;;;;;;;;6288531;22;20015;-79
2023/10/26 03:11:43;;;;;;;8.45;2.92;;;;;;;;;;6288188;22;20023;-79
2023/10/26 03:14:13;;;;;;;6.72;2.20;;;;;;;;;;6277399;22;20342;-79
2023/10/26 04:19:59;;;;;;;10.00;2.47;;;;;;;;;;6229732;22;20417;-78
2023/10/26 04:45:56;;;;;;;5.13;2.17;;;;;;;;;;6245445;22;20019;-77
2023/10/26 04:48:26;;;;;;;7.72;2.65;;;;;;;;;;6243996;23;20012;-78
2023/10/26 04:50:56;;;;;;;6.90;2.25;;;;;;;;;;6245824;23;20031;-78
2023/10/26 04:53:28;;;;;;;7.78;2.50;;;;;;;;;;6246829;23;20027;-78
2023/10/26 04:55:58;;;;;;;5.75;2.05;;;;;;;;;;6256933;23;20012;-78
2023/10/26 04:58:28;;;;;;;7.22;2.40;;;;;;;;;;6245444;23;20473;-78
2023/10/26 05:05:27;;;;;;;5.10;2.10;;;;;;;;;;6255995;23;20016;-78
2023/10/26 05:12:10;;;;;;;13.15;2.28;;;;;;;;;;6255112;23;20015;-78
2023/10/26 05:14:43;;;;;;;6.15;1.90;;;;;;;;;;6245288;23;20017;-79
2023/10/26 05:17:14;;;;;;;7.63;1.80;;;;;;;;;;6244305;23;20320;-78
2023/10/26 05:19:43;;;;;;;9.65;2.13;;;;;;;;;;6245714;23;20016;-79
2023/10/26 05:22:17;;;;;;;6.35;2.15;;;;;;;;;;6245235;23;20031;-78
2023/10/26 05:24:47;;;;;;;8.57;2.30;;;;;;;;;;6244646;23;20016;-78
2023/10/26 06:40:07;;;;;;;4.63;1.88;;;;;;;;;;6247190;22;20031;-78
2023/10/26 06:42:38;;;;;;;9.07;2.00;;;;;;;;;;6276975;22;20012;-79
2023/10/26 06:45:08;;;;;;;5.63;1.90;;;;;;;;;;6276274;22;20020;-78
2023/10/26 06:47:39;;;;;;;5.07;1.90;;;;;;;;;;6276109;22;20016;-78
2023/10/26 06:50:09;;;;;;;7.18;2.08;;;;;;;;;;6276623;22;20019;-78
2023/10/26 06:52:39;;;;;;;4.47;2.13;;;;;;;;;;6278141;22;20016;-78
2023/10/26 06:55:15;;;;;;;4.53;2.05;;;;;;;;;;6276222;22;20027;-77
2023/10/26 06:57:58;;;;;;;4.90;1.95;;;;;;;;;;6276748;22;20435;-78
2023/10/26 07:00:28;;;;;;;5.97;1.80;;;;;;;;;;6276204;22;20024;-79
2023/10/26 07:02:59;;;;;;;5.93;1.75;;;;;;;;;;6276191;22;20020;-78
2023/10/26 07:05:30;;;;;;;11.82;2.17;;;;;;;;;;6276861;22;20012;-79
2023/10/26 07:12:12;;;;;;;8.18;1.75;;;;;;;;;;6286654;22;20011;-78
2023/10/26 07:14:42;;;;;;;5.95;1.98;;;;;;;;;;6250605;22;20034;-79
2023/10/26 07:17:14;;;;;;;;;;;;;;;;;;6276858;22;20023;-79
2023/10/26 07:19:44;;;;;;;8.77;2.10;;;;;;;;;;6275357;22;19922;-79
2023/10/26 07:22:14;;;;;;;9.05;2.10;;;;;;;;;;6277285;22;20482;-80
2023/10/26 07:24:44;;;;;;;7.25;2.08;;;;;;;;;;6274938;22;20050;-78
2023/10/26 07:27:16;;;;;;;6.28;2.20;;;;;;;;;;6276435;22;20469;-79
2023/10/26 07:29:46;;;;;;;8.60;2.40;;;;;;;;;;6277297;22;20018;-80
2023/10/26 07:32:16;;;;;;;9.00;2.20;;;;;;;;;;6275850;22;20015;-79
2023/10/26 07:34:46;;;;;;;8.27;2.05;;;;;;;;;;6276347;22;20459;-80
2023/10/26 07:37:44;;;;;;;5.47;1.90;;;;;;;;;;6275876;22;20020;-79
2023/10/26 07:44:33;;;;;;;11.70;2.17;;;;;;;;;;6246399;22;20023;-79
2023/10/26 07:47:04;;;;;;;8.70;2.75;;;;;;;;;;6287641;22;20015;-78
2023/10/26 07:49:34;;;;;;;5.22;1.90;;;;;;;;;;6275469;22;20015;-79
2023/10/26 07:52:05;;;;;;;5.80;1.85;;;;;;;;;;6275319;22;20027;-80
2023/10/26 07:54:35;;;;;;;7.65;2.28;;;;;;;;;;6277008;22;20019;-79
2023/10/26 07:57:05;;;;;;;4.53;2.35;;;;;;;;;;6275529;22;20027;-78
2023/10/26 07:59:35;;;;;;;7.45;2.10;;;;;;;;;;6276693;22;20457;-78
2023/10/26 08:02:07;;;;;;;7.10;2.22;;;;;;;;;;6250182;22;20454;-79
2023/10/26 08:04:37;;;;;;;7.88;2.22;;;;;;;;;;6275297;22;20030;-79
2023/10/26 08:07:08;;;;;;;8.20;2.05;;;;;;;;;;6276368;22;20031;-79
2023/10/26 08:09:41;;;;;;;7.32;2.38;;;;;;;;;;6276578;22;20454;-78
2023/10/26 08:12:11;;;;;;;7.75;1.98;;;;;;;;;;6275993;22;20020;-79
2023/10/26 08:14:41;;;;;;;5.65;2.17;;;;;;;;;;6275432;22;20378;-78
2023/10/26 08:18:44;;;;;;;7.97;2.10;;;;;;;;;;6272882;22;20024;-79
2023/10/26 08:21:15;;;;;;;5.10;2.15;;;;;;;;;;6250429;22;20007;-79
2023/10/26 08:23:45;;;;;;;10.95;3.03;;;;;;;;;;6276575;22;20019;-79
2023/10/26 08:26:15;;;;;;;9.02;2.03;;;;;;;;;;6249305;22;20016;-80
2023/10/26 08:32:53;;;;;;;5.97;2.17;;;;;;;;;;6276207;22;20327;-80
2023/10/26 08:36:13;;;;;;;6.47;2.00;;;;;;;;;;6287131;22;20016;-79
2023/10/26 08:38:44;;;;;;;6.43;2.35;;;;;;;;;;6247744;22;20470;-79
2023/10/26 08:41:15;;;;;;;6.28;1.90;;;;;;;;;;6276064;22;20012;-79
2023/10/26 08:43:48;;;;;;;8.60;2.42;;;;;;;;;;6261370;22;20019;-79
2023/10/26 08:46:19;;;;;;;5.97;2.13;;;;;;;;;;6277513;22;20023;-80
2023/10/26 08:48:54;;;;;;;6.50;2.35;;;;;;;;;;6248406;22;20016;-79
2023/10/26 08:51:27;;;;;;;5.93;1.73;;;;;;;;;;6247626;22;20016;-80
2023/10/26 08:53:57;;;;;;;7.63;2.42;;;;;;;;;;6287135;22;20011;-79
2023/10/26 08:56:29;;;;;;;6.95;2.13;;;;;;;;;;6260965;22;20012;-79
2023/10/26 08:59:52;;;;;;;10.48;2.70;;;;;;;;;;6225252;22;20023;-80
2023/10/26 09:02:50;;;;;;;12.55;2.72;;;;;;;;;;6276045;22;20008;-79
2023/10/26 09:05:22;;;;;;;11.60;2.85;;;;;;;;;;6249311;22;20319;-80
2023/10/26 09:07:54;;;;;;;9.73;3.00;;;;;;;;;;6248521;22;20443;-80
2023/10/26 09:10:30;;;;;;;9.55;2.50;;;;;;;;;;6223734;22;20020;-79
2023/10/26 09:13:08;;;;;;;10.63;3.30;;;;;;;;;;6248106;22;20012;-79
2023/10/26 09:15:57;;;;;;;7.40;3.10;;;;;;;;;;6287055;22;20007;-80
2023/10/26 09:18:30;;;;;;;14.48;4.00;;;;;;;;;;6276152;22;20018;-80
2023/10/26 09:21:10;;;;;;;9.80;3.63;;;;;;;;;;6224666;22;20019;-79
2023/10/26 09:23:41;;;;;;;12.75;3.85;;;;;;;;;;6249914;22;20019;-79
2023/10/26 09:26:13;;;;;;;9.02;3.47;;;;;;;;;;6260127;22;20019;-80
2023/10/26 09:28:55;;;;;;;10.18;3.47;;;;;;;;;;6248906;22;20039;-81
2023/10/26 09:31:25;;;;;;;7.55;3.28;;;;;;;;;;6248823;22;20020;-79
2023/10/26 09:34:10;;;;;;;14.50;3.30;;;;;;;;;;6248650;22;20018;-79
2023/10/26 09:36:41;;;;;;;9.93;3.67;;;;;;;;;;6257851;22;20042;-80
2023/10/26 09:39:12;;;;;;;6.18;3.28;;;;;;;;;;6286448;22;20008;-79
2023/10/26 09:41:43;;;;;;;12.85;3.42;;;;;;;;;;6255687;22;20442;-79
2023/10/26 09:44:12;;;;;;;10.70;3.00;;;;;;;;;;6278212;22;20023;-80
2023/10/26 09:46:43;;;;;;;6.85;3.28;;;;;;;;;;6279649;22;20026;-79
2023/10/26 09:49:13;;;;;;;10.02;3.15;;;;;;;;;;6277569;22;20019;-78
2023/10/26 09:51:44;;;;;;;9.52;4.10;;;;;;;;;;6278418;22;20007;-79
2023/10/26 09:54:17;;;;;;;12.25;4.38;;;;;;;;;;6277820;22;20020;-79
2023/10/26 09:57:06;;;;;;;20.83;4.72;;;;;;;;;;6249630;22;20346;-79
2023/10/26 09:59:37;;;;;;;15.68;4.53;;;;;;;;;;6225381;22;20159;-79
2023/10/26 10:02:16;;;;;;;10.43;4.25;;;;;;;;;;6287517;22;20008;-79
2023/10/26 10:04:48;;;;;;;9.02;4.22;;;;;;;;;;6287220;22;20027;-79
2023/10/26 10:07:39;;;;;;;9.95;3.67;;;;;;;;;;6248561;22;20012;-79
2023/10/26 10:10:14;;;;;;;9.27;4.00;;;;;;;;;;6277121;22;20015;-79
2023/10/26 10:12:52;;;;;;;9.27;3.63;;;;;;;;;;6260268;22;20015;-78
2023/10/26 10:15:43;;;;;;;6.90;3.15;;;;;;;;;;6287005;22;20012;-79
2023/10/26 10:18:13;;;;;;;8.75;3.08;;;;;;;;;;6277393;22;20024;-79
2023/10/26 10:20:44;;;;;;;7.55;3.28;;;;;;;;;;6250012;22;20447;-78
2023/10/26 10:23:32;;;;;;;7.93;3.13;;;;;;;;;;6277151;22;20015;-79
2023/10/26 10:26:03;;;;;;;10.02;3.03;;;;;;;;;;6287078;22;20018;-79
2023/10/26 10:28:53;;;;;;;8.73;3.05;;;;;;;;;;6254939;22;20462;-78
2023/10/26 10:31:23;;;;;;;11.70;2.95;;;;;;;;;;6248886;22;20016;-79
2023/10/26 10:34:05;;;;;;;10.85;3.10;;;;;;;;;;6276304;22;20019;-79
2023/10/26 10:37:12;;;;;;;8.85;3.28;;;;;;;;;;6287094;22;20012;-80
2023/10/26 10:40:14;;;;;;;9.40;3.08;;;;;;;;;;6279104;22;20319;-79
2023/10/26 10:42:51;;;;;;;10.07;2.85;;;;;;;;;;6276177;22;20008;-79
2023/10/26 10:45:23;;;;;;;7.70;2.65;;;;;;;;;;6260676;22;20447;-80
2023/10/26 10:47:54;;;;;;;9.20;2.30;;;;;;;;;;6276153;22;20011;-79
2023/10/26 10:50:26;;;;;;;6.75;2.28;;;;;;;;;;6249745;22;20019;-80
2023/10/26 10:52:56;;;;;;;5.20;2.22;;;;;;;;;;6286568;22;20139;-79
2023/10/26 10:55:31;;;;;;;6.35;2.92;;;;;;;;;;6276043;22;20023;-80
2023/10/26 10:58:03;;;;;;;8.05;2.17;;;;;;;;;;6286702;22;20012;-79
2023/10/26 11:00:49;;;;;;;5.80;2.10;;;;;;;;;;6286238;22;20008;-80
2023/10/26 11:03:21;;;;;;;4.63;1.70;;;;;;;;;;6286395;22;20008;-79
2023/10/26 11:05:51;;;;;;;6.95;1.80;;;;;;;;;;6259856;22;20012;-80
2023/10/26 11:08:22;;;;;;;5.30;1.60;;;;;;;;;;6276544;22;20089;-80
2023/10/26 11:10:52;;;;;;;6.68;2.20;;;;;;;;;;6248602;22;20126;-80
2023/10/26 11:13:23;;;;;;;5.32;1.65;;;;;;;;;;6276623;22;20008;-80
2023/10/26 11:15:53;;;;;;;9.27;1.80;;;;;;;;;;6286186;22;20063;-80
2023/10/26 11:18:23;;;;;;;8.07;2.10;;;;;;;;;;6276118;22;20016;-80
2023/10/26 11:20:55;;;;;;;4.65;1.90;;;;;;;;;;6286279;22;20012;-80
2023/10/26 11:23:25;;;;;;;7.68;2.38;;;;;;;;;;6248575;22;20027;-80
2023/10/26 11:25:56;;;;;;;5.53;1.90;;;;;;;;;;6286160;22;20008;-80
2023/10/26 11:28:35;;;;;;;5.88;1.80;;;;;;;;;;6275686;22;20016;-80
2023/10/26 11:31:05;;;;;;;5.10;1.88;;;;;;;;;;6286313;22;20012;-79
2023/10/26 11:33:40;;;;;;;6.50;1.67;;;;;;;;;;6276432;22;20030;-79
2023/10/26 11:36:11;;;;;;;8.10;2.10;;;;;;;;;;6286932;22;20015;-79
2023/10/26 11:38:49;;;;;;;4.80;1.77;;;;;;;;;;6283751;22;20039;-79
2023/10/26 11:41:30;;;;;;;6.75;2.10;;;;;;;;;;6287194;22;20462;-80
2023/10/26 11:44:03;;;;;;;9.10;1.83;;;;;;;;;;6286725;22;20020;-80
2023/10/26 11:46:33;;;;;;;8.07;2.10;;;;;;;;;;6250687;22;20027;-80
2023/10/26 11:49:05;;;;;;;4.70;1.80;;;;;;;;;;6250896;22;20016;-80
2023/10/26 11:51:35;;;;;;;5.07;1.67;;;;;;;;;;6287205;22;20008;-80
2023/10/26 11:54:15;;;;;;;4.10;1.85;;;;;;;;;;6286863;22;20505;-80
2023/10/26 11:56:45;;;;;;;6.22;1.92;;;;;;;;;;6277594;22;20016;-80
2023/10/26 11:59:15;;;;;;;16.35;2.17;;;;;;;;;;6274242;22;20012;-80
2023/10/26 12:01:45;;;;;;;6.25;1.60;;;;;;;;;;6248017;22;20320;-80
2023/10/26 12:04:15;;;;;;;4.82;1.42;;;;;;;;;;6276194;22;20008;-80
2023/10/26 12:06:46;;;;;;;6.43;1.60;;;;;;;;;;6276020;22;20023;-80
2023/10/26 12:09:16;;;;;;;4.63;1.50;;;;;;;;;;6276905;22;20022;-81
2023/10/26 12:11:46;;;;;;;3.58;1.73;;;;;;;;;;6276245;22;20347;-82
2023/10/26 12:14:16;;;;;;;5.97;1.80;;;;;;;;;;6275600;22;20012;-81
2023/10/26 12:16:47;;;;;;;5.00;1.58;;;;;;;;;;6275147;22;20027;-81
2023/10/26 12:19:17;;;;;;;3.58;1.77;;;;;;;;;;6285440;22;20012;-82
2023/10/26 12:21:47;;;;;;;5.63;1.60;;;;;;;;;;6273540;22;20011;-80
2023/10/26 12:24:18;;;;;;;5.80;1.40;;;;;;;;;;6285562;22;20023;-82
2023/10/26 12:26:49;;;;;;;4.25;1.35;;;;;;;;;;6285370;22;20019;-82
2023/10/26 12:29:19;;;;;;;4.00;1.15;;;;;;;;;;6248954;22;20019;-81
2023/10/26 12:31:49;;;;;;;4.50;1.40;;;;;;;;;;6276000;22;20008;-80
2023/10/26 12:34:19;;;;;;;3.72;1.55;;;;;;;;;;6263174;22;20030;-81
2023/10/26 12:36:49;;;;;;;4.60;1.90;;;;;;;;;;6274816;22;20023;-82
2023/10/26 12:39:19;;;;;;;4.60;2.38;;;;;;;;;;6262605;22;20031;-82
2023/10/26 12:41:49;;;;;;;6.40;2.45;;;;;;;;;;6275773;22;20012;-82
2023/10/26 12:44:24;;;;;;;4.85;2.30;;;;;;;;;;6275167;22;20343;-81
2023/10/26 12:46:54;;;;;;;6.65;2.08;;;;;;;;;;6285258;22;20035;-81
2023/10/26 12:49:25;;;;;;;11.02;2.40;;;;;;;;;;6285018;22;20007;-82
2023/10/26 12:51:56;;;;;;;5.53;1.90;;;;;;;;;;6274902;22;20031;-81
2023/10/26 12:54:27;;;;;;;7.75;2.10;;;;;;;;;;6285148;22;20016;-82
2023/10/26 12:57:00;;;;;;;5.75;2.20;;;;;;;;;;6286129;22;20015;-84
2023/10/26 12:59:30;;;;;;;7.10;2.47;;;;;;;;;;6275781;22;20355;-82
2023/10/26 13:02:00;;;;;;;6.03;1.90;;;;;;;;;;6275192;22;20362;-83
2023/10/26 13:04:30;;;;;;;8.52;2.42;;;;;;;;;;6275138;22;20016;-81
2023/10/26 13:07:01;;;;;;;4.95;1.73;;;;;;;;;;6285688;22;20007;-82
2023/10/26 13:09:31;;;;;;;5.68;1.58;;;;;;;;;;6275588;22;20015;-81
2023/10/26 13:12:02;;;;;;;3.60;1.90;;;;;;;;;;6223282;22;20015;-82
2023/10/26 13:14:32;;;;;;;5.05;1.85;;;;;;;;;;6275090;22;20447;-82
2023/10/26 13:17:01;;;;;;;8.30;2.05;;;;;;;;;;6275125;22;20339;-79
2023/10/26 13:19:32;;;;;;;6.70;1.98;;;;;;;;;;6247977;22;20023;-81
2023/10/26 13:22:02;;;;;;;5.72;1.88;;;;;;;;;;6247251;22;20026;-82
2023/10/26 13:24:32;;;;;;;4.07;1.40;;;;;;;;;;6248412;22;20019;-81
2023/10/26 13:27:02;;;;;;;5.82;1.73;;;;;;;;;;6274985;22;20020;-80
2023/10/26 13:29:32;;;;;;;5.32;1.60;;;;;;;;;;6274306;22;20012;-84
2023/10/26 13:32:04;;;;;;;7.53;1.48;;;;;;;;;;6258556;22;20014;-86
2023/10/26 13:34:35;;;;;;;6.53;1.42;;;;;;;;;;6273674;22;20431;-87
2023/10/26 13:37:05;;;;;;;7.80;2.72;;;;;;;;;;6221698;22;20439;-83
2023/10/26 13:39:35;;;;;;;7.93;1.60;;;;;;;;;;6244537;22;20035;-83
2023/10/26 13:42:05;;;;;;;2.10;1.17;;;;;;;;;;6221207;22;20457;-83
2023/10/26 13:44:35;;;;;;;4.05;1.52;;;;;;;;;;6272188;22;20473;-83
2023/10/26 13:47:06;;;;;;;3.35;1.05;;;;;;;;;;6274864;22;20026;-85
2023/10/26 13:49:42;;;;;;;3.55;1.23;;;;;;;;;;6284454;22;20012;-85
2023/10/26 13:52:12;;;;;;;5.35;1.50;;;;;;;;;;6271950;22;20438;-84
2023/10/26 13:54:43;;;;;;;2.83;1.42;;;;;;;;;;6222200;22;20020;-82
2023/10/26 13:57:13;;;;;;;7.60;1.65;;;;;;;;;;6247106;22;20022;-83
2023/10/26 13:59:44;;;;;;;4.65;1.42;;;;;;;;;;6247152;22;20030;-86
2023/10/26 14:02:14;;;;;;;4.22;1.25;;;;;;;;;;6275478;22;20022;-83
2023/10/26 14:04:44;;;;;;;5.65;1.33;;;;;;;;;;6244380;22;20027;-83
2023/10/26 14:07:15;;;;;;;3.65;2.30;;;;;;;;;;6247775;22;20019;-84
2023/10/26 14:09:47;;;;;;;5.45;1.65;;;;;;;;;;6283974;22;20016;-87
2023/10/26 14:12:20;;;;;;;6.30;1.60;;;;;;;;;;6285369;22;20019;-83
2023/10/26 14:14:50;;;;;;;4.70;1.65;;;;;;;;;;6272792;22;20481;-81
2023/10/26 14:17:21;;;;;;;4.75;1.45;;;;;;;;;;6247686;22;20012;-82
2023/10/26 14:19:52;;;;;;;5.65;1.95;;;;;;;;;;6274684;22;20015;-87
2023/10/26 14:22:22;;;;;;;2.92;1.40;;;;;;;;;;6276912;22;20015;-82
2023/10/26 14:24:52;;;;;;;2.17;1.20;;;;;;;;;;6276594;22;20358;-81
2023/10/26 14:27:22;;;;;;;3.03;1.00;;;;;;;;;;6247396;22;20015;-81
2023/10/26 14:29:52;;;;;;;3.17;1.20;;;;;;;;;;6277537;22;20324;-80
2023/10/26 14:32:22;;;;;;;2.30;1.27;;;;;;;;;;6278147;22;20016;-81
2023/10/26 14:34:53;;;;;;;2.35;1.23;;;;;;;;;;6250903;22;20011;-84
2023/10/26 14:37:23;;;;;;;2.00;0.80;;;;;;;;;;6250604;22;20019;-82
2023/10/26 14:39:53;;;;;;;4.75;1.10;;;;;;;;;;6250558;22;20023;-83
2023/10/26 14:42:23;;;;;;;2.00;1.00;;;;;;;;;;6278784;22;20019;-83
2023/10/26 14:44:53;;;;;;;4.22;0.93;;;;;;;;;;6277426;22;20015;-84
2023/10/26 14:47:24;;;;;;;3.92;1.00;;;;;;;;;;6278125;22;20465;-84
2023/10/26 14:49:54;;;;;;;1.98;0.88;;;;;;;;;;6277842;22;20015;-82
2023/10/26 14:52:24;;;;;;;2.92;0.80;;;;;;;;;;6277623;22;20335;-83
2023/10/26 14:54:54;;;;;;;2.60;0.65;;;;;;;;;;6273343;22;20026;-86
2023/10/26 14:57:24;;;;;;;4.40;0.80;;;;;;;;;;6249828;22;20015;-83
2023/10/26 14:59:54;;;;;;;5.85;0.90;;;;;;;;;;6250139;22;20019;-82
2023/10/26 15:02:25;;;;;;;2.65;0.80;;;;;;;;;;6276690;22;20350;-82
2023/10/26 15:04:55;;;;;;;2.05;0.93;;;;;;;;;;6248093;22;20019;-82
2023/10/26 15:07:26;;;;;;;1.38;0.80;;;;;;;;;;6246983;22;20019;-83
2023/10/26 15:09:56;;;;;;;4.70;0.77;;;;;;;;;;6249888;22;20019;-84
2023/10/26 15:12:46;;;;;;;3.03;1.23;;;;;;;;;;6224862;22;20023;-84
2023/10/26 15:15:17;;;;;;;1.60;0.73;;;;;;;;;;6276140;22;20443;-84
2023/10/26 15:17:48;;;;;;;1.45;0.70;;;;;;;;;;6248802;22;20347;-83
2023/10/26 15:20:19;;;;;;;1.98;0.77;;;;;;;;;;6286537;22;20015;-84
2023/10/26 15:22:49;;;;;;;3.72;0.80;;;;;;;;;;6277323;22;20014;-80
2023/10/26 15:25:20;;;;;;;3.25;0.65;;;;;;;;;;6276482;22;20016;-80
2023/10/26 15:27:50;;;;;;;1.95;0.63;;;;;;;;;;6275990;22;20016;-80
2023/10/26 15:30:20;;;;;;;2.28;0.60;;;;;;;;;;6277316;22;20323;-81
2023/10/26 15:32:50;;;;;;;1.30;0.52;;;;;;;;;;6276797;22;20015;-80
2023/10/26 15:35:20;;;;;;;1.13;0.60;;;;;;;;;;6277069;22;20012;-80
2023/10/26 15:37:50;;;;;;;2.75;0.80;;;;;;;;;;6249515;22;20015;-84
2023/10/26 15:40:20;;;;;;;2.78;0.80;;;;;;;;;;6245483;23;20019;-82
2023/10/26 15:42:50;;;;;;;1.02;0.60;;;;;;;;;;6244515;23;20340;-79
2023/10/26 15:45:22;;;;;;;7.10;0.85;;;;;;;;;;6254724;23;20016;-80
2023/10/26 15:47:53;;;;;;;0.90;0.40;;;;;;;;;;6246313;23;20350;-79
2023/10/26 15:50:36;;;;;;;4.38;1.20;;;;;;;;;;6254469;23;20462;-81
2023/10/26 15:53:06;;;;;;;2.05;0.80;;;;;;;;;;6245758;23;20015;-79
2023/10/26 15:55:36;;;;;;;2.47;0.65;;;;;;;;;;6245699;23;20447;-81
2023/10/26 15:58:07;;;;;;;3.15;0.90;;;;;;;;;;6246684;23;20447;-80
2023/10/26 16:00:37;;;;;;;5.10;0.80;;;;;;;;;;6193750;23;20016;-80
2023/10/26 16:03:07;;;;;;;1.45;0.80;;;;;;;;;;6218700;23;20129;-82
2023/10/26 16:06:04;;;;;;;2.75;1.35;;;;;;;;;;6232135;23;20020;-83
2023/10/26 16:56:37;;;;;;;3.75;1.10;;;;;;;;;;6245646;22;20034;-83
2023/10/26 16:59:57;;;;;;;3.15;0.93;;;;;;;;;;6078665;23;20025;-78
2023/10/26 17:02:35;;;;;;;3.35;1.10;;;;;;;;;;6169266;23;20468;-78
2023/10/26 17:05:05;;;;;;;2.67;0.80;;;;;;;;;;6247284;22;20019;-79
2023/10/26 17:07:37;;;;;;;3.47;0.90;;;;;;;;;;6276375;22;20016;-77
2023/10/26 17:10:11;;;;;;;3.95;0.95;;;;;;;;;;6286378;22;20007;-78
2023/10/26 17:12:42;;;;;;;1.75;0.93;;;;;;;;;;6287875;22;20876;-81
2023/10/26 17:15:17;;;;;;;2.55;1.02;;;;;;;;;;6259958;22;20025;-81
2023/10/26 17:17:51;;;;;;;;;;;;;;;;;;6286976;22;20019;-80
2023/10/26 17:20:33;;;;;;;4.22;0.80;;;;;;;;;;6286235;22;19922;-79
2023/10/26 17:23:11;;;;;;;5.35;1.00;;;;;;;;;;6287173;22;20022;-80
2023/10/26 17:25:44;;;;;;;2.85;0.80;;;;;;;;;;6276099;22;20335;-81
2023/10/26 17:28:15;;;;;;;2.63;0.90;;;;;;;;;;6276654;22;20012;-77
2023/10/26 17:30:45;;;;;;;3.75;0.77;;;;;;;;;;6275948;22;20013;-79
2023/10/26 17:33:17;;;;;;;3.25;0.68;;;;;;;;;;6276683;22;20012;-78
2023/10/26 17:35:58;;;;;;;2.13;0.82;;;;;;;;;;6289970;22;20028;-78
2023/10/26 17:38:43;;;;;;;1.55;0.77;;;;;;;;;;6274741;22;20020;-79
2023/10/26 17:41:15;;;;;;;3.30;0.88;;;;;;;;;;6275716;22;20011;-77
2023/10/26 17:43:46;;;;;;;;;;;;;;;;;;6286665;22;20019;-78
2023/10/26 17:46:16;;;;;;;2.95;1.00;;;;;;;;;;6286623;22;19915;-79
2023/10/26 17:48:46;;;;;;;2.28;0.82;;;;;;;;;;6248971;22;20019;-79
2023/10/26 17:51:17;;;;;;;2.03;0.68;;;;;;;;;;6276971;22;20335;-78
2023/10/26 17:53:47;;;;;;;4.35;1.00;;;;;;;;;;6277811;22;20016;-79
2023/10/26 17:56:20;;;;;;;3.22;1.10;;;;;;;;;;6275753;22;20011;-80
2023/10/26 17:58:59;;;;;;;3.60;0.73;;;;;;;;;;6250924;22;20288;-79
2023/10/26 18:02:12;;;;;;;4.28;0.93;;;;;;;;;;6223607;22;20027;-84
2023/10/26 18:14:05;;;;;;;1.90;0.95;;;;;;;;;;6074347;23;20397;-84
2023/10/26 18:33:45;;;;;;;1.48;0.60;;;;;;;;;;5761719;24;20024;-83
2023/10/26 18:36:25;;;;;;;2.00;0.55;;;;;;;;;;5760794;24;20392;-83
2023/10/26 18:38:54;;;;;;;1.52;0.70;;;;;;;;;;5982650;23;20016;-83
2023/10/26 18:41:25;;;;;;;1.45;0.73;;;;;;;;;;6037947;23;20015;-83
2023/10/26 18:43:55;;;;;;;2.80;0.80;;;;;;;;;;6039138;23;20023;-83
2023/10/26 18:46:25;;;;;;;1.65;1.00;;;;;;;;;;6038152;23;20408;-83
2023/10/26 18:48:58;;;;;;;1.15;0.50;;;;;;;;;;6037751;23;20239;-82
2023/10/26 18:51:30;;;;;;;3.22;0.88;;;;;;;;;;6037308;23;20022;-83
2023/10/26 18:54:00;;;;;;;3.28;0.80;;;;;;;;;;6013024;23;20023;-86
2023/10/26 18:56:44;;;;;;;1.77;1.00;;;;;;;;;;6066591;23;20022;-82
2023/10/26 18:59:14;;;;;;;1.58;0.60;;;;;;;;;;6124288;23;20025;-82
2023/10/26 19:01:44;;;;;;;3.50;0.93;;;;;;;;;;6124296;23;20033;-83
2023/10/26 19:04:16;;;;;;;3.17;0.75;;;;;;;;;;6124110;23;20241;-85
2023/10/26 19:06:50;;;;;;;3.08;0.82;;;;;;;;;;6110622;23;20021;-84
2023/10/26 19:09:24;;;;;;;1.60;0.70;;;;;;;;;;6110575;23;20025;-85
2023/10/26 19:12:04;;;;;;;1.63;0.65;;;;;;;;;;6129649;23;20487;-83
2023/10/26 19:14:35;;;;;;;1.10;0.60;;;;;;;;;;6168521;23;20020;-84
2023/10/26 19:17:16;;;;;;;3.05;0.90;;;;;;;;;;6164509;23;20013;-85
2023/10/26 19:19:51;;;;;;;2.03;1.23;;;;;;;;;;6171826;23;20024;-83
2023/10/26 19:22:26;;;;;;;2.47;0.95;;;;;;;;;;6193486;23;20017;-85
2023/10/26 19:24:56;;;;;;;2.10;1.10;;;;;;;;;;6192082;23;20021;-81
2023/10/26 19:27:49;;;;;;;3.30;0.77;;;;;;;;;;6137658;23;20392;-83
2023/10/26 19:30:59;;;;;;;3.30;0.80;;;;;;;;;;6175482;23;20514;-82
2023/10/26 19:33:55;;;;;;;2.85;0.98;;;;;;;;;;6081845;23;20023;-81
2023/10/26 19:36:26;;;;;;;4.20;0.93;;;;;;;;;;6183339;23;20070;-80
2023/10/26 19:38:56;;;;;;;2.58;0.80;;;;;;;;;;6182319;23;20029;-81
2023/10/26 19:41:27;;;;;;;1.83;0.90;;;;;;;;;;6157529;23;20020;-80
2023/10/26 19:43:57;;;;;;;2.90;0.70;;;;;;;;;;6186429;23;20049;-80
2023/10/26 19:46:28;;;;;;;4.57;1.30;;;;;;;;;;6182496;23;20456;-82
2023/10/26 19:48:58;;;;;;;4.25;0.93;;;;;;;;;;6158264;23;20503;-82
2023/10/26 19:51:27;;;;;;;2.22;0.73;;;;;;;;;;6182825;23;20031;-82
2023/10/26 19:54:00;;;;;;;4.55;0.82;;;;;;;;;;6186282;23;20017;-83
2023/10/26 19:56:31;;;;;;;3.38;1.02;;;;;;;;;;6157043;23;20476;-81
2023/10/26 19:59:01;;;;;;;1.50;1.08;;;;;;;;;;6152888;23;20365;-82
2023/10/26 20:01:31;;;;;;;5.90;1.15;;;;;;;;;;6152555;23;20057;-85
2023/10/26 20:04:01;;;;;;;2.90;0.82;;;;;;;;;;6152976;23;20022;-83
2023/10/26 20:06:31;;;;;;;3.45;0.95;;;;;;;;;;6126634;23;20022;-83
2023/10/26 20:09:02;;;;;;;2.90;0.82;;;;;;;;;;6126855;23;20017;-83
2023/10/26 20:11:34;;;;;;;4.43;0.75;;;;;;;;;;6154327;23;20018;-83
2023/10/26 20:14:05;;;;;;;2.55;0.70;;;;;;;;;;6152085;23;20025;-84
2023/10/26 20:16:36;;;;;;;5.88;1.08;;;;;;;;;;6159802;23;20014;-82
2023/10/26 20:19:06;;;;;;;7.05;1.15;;;;;;;;;;6152403;23;20037;-83
2023/10/26 20:21:38;;;;;;;2.60;1.02;;;;;;;;;;6161995;23;20178;-82
2023/10/26 20:24:09;;;;;;;2.55;1.27;;;;;;;;;;6155354;23;20021;-81